Carnival Spirit — 9HA3097 — position and weather

sailwx.info

Track history (hours):
 
Tides and Currents Weather Stations Pressure Air Temp Water Temp Dewpoint Dewpoint Depression Visibility Wind Speed Wind Dir Waves Ship Positions

Carnival Spirit

Last reported at 2017-Sep-21 19:30 UTC. Time now 2017-Sep-22 06:18 UTC.
Position S 33°51' E 151°15'.

Length 293 m; draft 8.4 m.

Type: Ship. MMSI: 229136000.

Date/timePositionNaut miles runAvg speedWind from/ knotsBaromVisibWave heightAir tempDewpointWater temp
2017-Sep-21 19:30S 33°51' E 151°15'510.1
2017-Sep-21 19:00S 33°50' E 151°21'713.4
2017-Sep-21 18:30S 33°45' E 151°27'816.8
2017-Sep-21 18:00S 33°40' E 151°35'714.5
2017-Sep-21 17:30S 33°35' E 151°41'816.4
2017-Sep-21 17:00S 33°29' E 151°48'918.1
2017-Sep-21 16:30S 33°23' E 151°56'918.9
2017-Sep-21 16:00S 33°16' E 152°04'1019.3
2017-Sep-21 15:30S 33°09' E 152°12'1019.7
2017-Sep-21 15:00S 33°02' E 152°21'1019.5
2017-Sep-21 14:30S 32°56' E 152°29'1019.3
2017-Sep-21 14:00S 32°49' E 152°37'1019.9
2017-Sep-21 13:30S 32°42' E 152°46'1121.3
2017-Sep-21 13:00S 32°35' E 152°55'1221.2
2017-Sep-21 12:26S 32°26' E 153°05'1221.0
2017-Sep-21 11:52S 32°18' E 153°15'1617.6
2017-Sep-21 10:59S 32°07' E 153°29'816.7
2017-Sep-21 10:29S 32°01' E 153°36'816.8
2017-Sep-21 10:00S 31°56' E 153°43'1017.1
2017-Sep-21 09:24S 31°49' E 153°51'86217.4
2017-Sep-19 08:00S 22°28' E 166°07'917.9
2017-Sep-19 07:30S 22°22' E 166°14'713.7
2017-Sep-19 07:00S 22°18' E 166°19'612.3
2017-Sep-19 06:31S 22°15' E 166°25'1 1.3
2017-Sep-19 05:59S 22°16' E 166°26'0 0.0
2017-Sep-19 05:29S 22°16' E 166°26'0 0.0
2017-Sep-19 04:59S 22°16' E 166°26'0 0.0
2017-Sep-19 04:29S 22°16' E 166°26'0 0.0
2017-Sep-19 03:59S 22°16' E 166°26'0 0.0
2017-Sep-19 03:26S 22°16' E 166°26'0 0.0
2017-Sep-19 02:59S 22°16' E 166°26'0 0.0
2017-Sep-19 02:26S 22°16' E 166°26'0 0.0
2017-Sep-19 01:59S 22°16' E 166°26'0 0.0
2017-Sep-19 01:29S 22°16' E 166°26'0 0.0
2017-Sep-19 00:59S 22°16' E 166°26'0 0.0
2017-Sep-19 00:29S 22°16' E 166°26'0 0.0
2017-Sep-18 23:59S 22°16' E 166°26'0 0.0
2017-Sep-18 23:29S 22°16' E 166°26'0 0.0
2017-Sep-18 22:53S 22°16' E 166°26'0 0.0
2017-Sep-18 22:26S 22°16' E 166°26'0 0.0
2017-Sep-18 21:59S 22°16' E 166°26'0 0.0
2017-Sep-18 21:29S 22°16' E 166°26'0 0.0
2017-Sep-18 20:59S 22°16' E 166°26'0 0.1
2017-Sep-18 20:30S 22°16' E 166°26'3 6.1
2017-Sep-18 20:00S 22°15' E 166°23'815.3
2017-Sep-18 19:30S 22°20' E 166°17'815.0
2017-Sep-18 19:00S 22°25' E 166°11'510.3
2017-Sep-18 18:29S 22°30' E 166°08'510.3
2017-Sep-18 17:59S 22°34' E 166°11'612.1
2017-Sep-18 17:30S 22°39' E 166°14'  
2017-Sep-13 01:57S 31°21' E 155°17'716.4
2017-Sep-13 01:30S 31°25' E 155°10'916.6
2017-Sep-13 00:58S 31°31' E 155°02'816.8
2017-Sep-13 00:30S 31°35' E 154°55'816.8
2017-Sep-13 00:00S 31°40' E 154°47'2516.1
2017-Sep-12 22:27S 31°55' E 154°23'715.8
2017-Sep-12 22:00S 31°60' E 154°17'815.9
2017-Sep-12 21:30S 32°05' E 154°09'815.9
2017-Sep-12 21:00S 32°09' E 154°02'815.9
2017-Sep-12 20:30S 32°14' E 153°54'815.8
2017-Sep-12 19:58S 32°19' E 153°47'715.8
2017-Sep-12 19:30S 32°24' E 153°40'815.7
2017-Sep-12 19:00S 32°28' E 153°32'815.7
2017-Sep-12 18:30S 32°33' E 153°24'815.6
2017-Sep-12 18:00S 32°38' E 153°17'815.1
2017-Sep-12 17:30S 32°42' E 153°10'714.8
2017-Sep-12 17:00S 32°47' E 153°03'714.6
2017-Sep-12 16:30S 32°51' E 152°56'714.5
2017-Sep-12 16:00S 32°56' E 152°49'815.4
2017-Sep-12 15:30S 33°00' E 152°42'815.8
2017-Sep-12 15:00S 33°05' E 152°34'816.2
2017-Sep-12 14:30S 33°10' E 152°27'816.7
2017-Sep-12 14:00S 33°15' E 152°19'816.9
2017-Sep-12 13:31S 33°20' E 152°11'816.6
2017-Sep-12 13:01S 33°25' E 152°03'816.3
2017-Sep-12 12:30S 33°30' E 151°55'816.2
2017-Sep-12 12:00S 33°35' E 151°47'815.5
2017-Sep-12 11:30S 33°40' E 151°40'815.1
2017-Sep-12 11:00S 33°44' E 151°33'714.8
2017-Sep-12 10:31S 33°49' E 151°26'911.0
2017-Sep-12 09:39S 33°51' E 151°15'  
Track history (hours):
 
Tides and Currents Weather Stations Pressure Air Temp Water Temp Dewpoint Dewpoint Depression Visibility Wind Speed Wind Dir Waves Ship Positions

Carnival Spirit

Last reported at 2017-Sep-21 19:30 UTC. Time now 2017-Sep-22 06:18 UTC.
Position S 33°51' E 151°15'.

Length 293 m; draft 8.4 m.

Type: Ship. MMSI: 229136000.

Date/timePositionNaut miles runAvg speedWind from/ knotsBaromVisibWave heightAir tempDewpointWater temp
2017-Sep-21 19:30S 33°51' E 151°15'510.1
2017-Sep-21 19:00S 33°50' E 151°21'713.4
2017-Sep-21 18:30S 33°45' E 151°27'816.8
2017-Sep-21 18:00S 33°40' E 151°35'714.5
2017-Sep-21 17:30S 33°35' E 151°41'816.4
2017-Sep-21 17:00S 33°29' E 151°48'918.1
2017-Sep-21 16:30S 33°23' E 151°56'918.9
2017-Sep-21 16:00S 33°16' E 152°04'1019.3
2017-Sep-21 15:30S 33°09' E 152°12'1019.7
2017-Sep-21 15:00S 33°02' E 152°21'1019.5
2017-Sep-21 14:30S 32°56' E 152°29'1019.3
2017-Sep-21 14:00S 32°49' E 152°37'1019.9
2017-Sep-21 13:30S 32°42' E 152°46'1121.3
2017-Sep-21 13:00S 32°35' E 152°55'1221.2
2017-Sep-21 12:26S 32°26' E 153°05'1221.0
2017-Sep-21 11:52S 32°18' E 153°15'1617.6
2017-Sep-21 10:59S 32°07' E 153°29'816.7
2017-Sep-21 10:29S 32°01' E 153°36'816.8
2017-Sep-21 10:00S 31°56' E 153°43'1017.1
2017-Sep-21 09:24S 31°49' E 153°51'86217.4
2017-Sep-19 08:00S 22°28' E 166°07'917.9
2017-Sep-19 07:30S 22°22' E 166°14'713.7
2017-Sep-19 07:00S 22°18' E 166°19'612.3
2017-Sep-19 06:31S 22°15' E 166°25'1 1.3
2017-Sep-19 05:59S 22°16' E 166°26'0 0.0
2017-Sep-19 05:29S 22°16' E 166°26'0 0.0
2017-Sep-19 04:59S 22°16' E 166°26'0 0.0
2017-Sep-19 04:29S 22°16' E 166°26'0 0.0
2017-Sep-19 03:59S 22°16' E 166°26'0 0.0
2017-Sep-19 03:26S 22°16' E 166°26'0 0.0
2017-Sep-19 02:59S 22°16' E 166°26'0 0.0
2017-Sep-19 02:26S 22°16' E 166°26'0 0.0
2017-Sep-19 01:59S 22°16' E 166°26'0 0.0
2017-Sep-19 01:29S 22°16' E 166°26'0 0.0
2017-Sep-19 00:59S 22°16' E 166°26'0 0.0
2017-Sep-19 00:29S 22°16' E 166°26'0 0.0
2017-Sep-18 23:59S 22°16' E 166°26'0 0.0
2017-Sep-18 23:29S 22°16' E 166°26'0 0.0
2017-Sep-18 22:53S 22°16' E 166°26'0 0.0
2017-Sep-18 22:26S 22°16' E 166°26'0 0.0
2017-Sep-18 21:59S 22°16' E 166°26'0 0.0
2017-Sep-18 21:29S 22°16' E 166°26'0 0.0
2017-Sep-18 20:59S 22°16' E 166°26'0 0.1
2017-Sep-18 20:30S 22°16' E 166°26'3 6.1
2017-Sep-18 20:00S 22°15' E 166°23'815.3
2017-Sep-18 19:30S 22°20' E 166°17'815.0
2017-Sep-18 19:00S 22°25' E 166°11'510.3
2017-Sep-18 18:29S 22°30' E 166°08'510.3
2017-Sep-18 17:59S 22°34' E 166°11'612.1
2017-Sep-18 17:30S 22°39' E 166°14'  
2017-Sep-13 01:57S 31°21' E 155°17'716.4
2017-Sep-13 01:30S 31°25' E 155°10'916.6
2017-Sep-13 00:58S 31°31' E 155°02'816.8
2017-Sep-13 00:30S 31°35' E 154°55'816.8
2017-Sep-13 00:00S 31°40' E 154°47'2516.1
2017-Sep-12 22:27S 31°55' E 154°23'715.8
2017-Sep-12 22:00S 31°60' E 154°17'815.9
2017-Sep-12 21:30S 32°05' E 154°09'815.9
2017-Sep-12 21:00S 32°09' E 154°02'815.9
2017-Sep-12 20:30S 32°14' E 153°54'815.8
2017-Sep-12 19:58S 32°19' E 153°47'715.8
2017-Sep-12 19:30S 32°24' E 153°40'815.7
2017-Sep-12 19:00S 32°28' E 153°32'815.7
2017-Sep-12 18:30S 32°33' E 153°24'815.6
2017-Sep-12 18:00S 32°38' E 153°17'815.1
2017-Sep-12 17:30S 32°42' E 153°10'714.8
2017-Sep-12 17:00S 32°47' E 153°03'714.6
2017-Sep-12 16:30S 32°51' E 152°56'714.5
2017-Sep-12 16:00S 32°56' E 152°49'815.4
2017-Sep-12 15:30S 33°00' E 152°42'815.8
2017-Sep-12 15:00S 33°05' E 152°34'816.2
2017-Sep-12 14:30S 33°10' E 152°27'816.7
2017-Sep-12 14:00S 33°15' E 152°19'816.9
2017-Sep-12 13:31S 33°20' E 152°11'816.6
2017-Sep-12 13:01S 33°25' E 152°03'816.3
2017-Sep-12 12:30S 33°30' E 151°55'816.2
2017-Sep-12 12:00S 33°35' E 151°47'815.5
2017-Sep-12 11:30S 33°40' E 151°40'815.1
2017-Sep-12 11:00S 33°44' E 151°33'714.8
2017-Sep-12 10:31S 33°49' E 151°26'911.0
2017-Sep-12 09:39S 33°51' E 151°15'  

Dump ship's entire track history